M19

Newport Regional Airport

Newport, Arkansas, USA
METAR KM19 171856Z AUTO 20011KT 10SM CLR 18/07 A3013 RMK AO2 SLP211 T01830067
Observed Flight Rules
Nov-17 @ 18:56 UTC (32 minutes ago) Visual Flight Rules
Wind Visibility Clouds
200° at 11 knots 10 miles
  • Clear skies
Temperatures Readings
Current 18°C / 64°F
Dewpoint 7°C / 45°F
Humidity 49%
Altimeter 30.13" Hg
Pressure 1021.1 hPa
Elevation 73
METAR KM19 171856Z AUTO 20011KT 10SM CLR 18/07 A3013 RMK AO2 SLP211 T01830067
Observed Flight Rules
Nov-17 @ 18:56 UTC
(32 minutes ago)
VFR
Wind Visibility
200° at 11 knots 10 miles
Clouds
  • Clear skies
Temperature Dewpoint
18°C / 64°F 7°C / 45°F
Humidity Altimeter Pressure
49% 30.13" Hg 1021.1 hPa